MSC Luisa — H9XU — position and weather

sailwx.info

Track history (hours):
 
Tides and Currents Weather Stations Pressure Air Temp Water Temp Dewpoint Dewpoint Depression Visibility Wind Speed Wind Dir Waves Ship Positions

MSC Luisa

Last reported at 2016-May-23 11:26 UTC. Time now 2016-May-27 18:11 UTC.
Position N 26°32' W 078°46'.

Length 289 m; draft 10.5 m.

Type: Ship. MMSI: 355308000.

Date/timePositionNaut miles runAvg speedWind from/ knotsBaromVisibWave heightAir tempDewpointWater temp
2016-May-23 11:26N 26°32' W 078°46'0 0.0
2016-May-23 10:19N 26°32' W 078°46'0 0.0
2016-May-23 09:25N 26°32' W 078°46'0 0.0
2016-May-23 07:33N 26°32' W 078°46'55 3.3
2016-May-22 15:03N 27°20' W 079°16'917.0
2016-May-22 14:31N 27°29' W 079°15'247 7.6
2016-May-21 06:05N 31°33' W 080°04'5 8.7
2016-May-21 05:33N 31°37' W 080°06'9 9.0
2016-May-21 04:33N 31°46' W 080°09'9 8.7
2016-May-21 03:32N 31°51' W 080°17'9 9.5
2016-May-21 02:33N 31°54' W 080°28'9 9.2
2016-May-21 01:33N 31°56' W 080°38'1111.3
2016-May-21 00:33N 32°02' W 080°49'1010.0
2016-May-20 23:34N 32°06' W 081°00'6 5.7
2016-May-20 22:33N 32°06' W 081°07'1 1.5
2016-May-20 21:34N 32°07' W 081°08'0 0.0
2016-May-20 20:33N 32°07' W 081°08'0 0.0
2016-May-20 19:33N 32°07' W 081°08'0 0.0
2016-May-20 18:32N 32°07' W 081°08'0 0.0
2016-May-20 17:32N 32°07' W 081°08'0 0.0
2016-May-20 16:31N 32°07' W 081°08'0 0.0
2016-May-20 15:31N 32°07' W 081°08'0 0.0
2016-May-20 14:33N 32°07' W 081°08'0 0.0
2016-May-20 13:33N 32°07' W 081°08'0 0.0
2016-May-20 12:33N 32°07' W 081°08'0 0.0
2016-May-20 11:32N 32°07' W 081°08'0 0.0
2016-May-20 10:32N 32°07' W 081°08'0 0.0
2016-May-20 09:33N 32°07' W 081°08'2 1.6
2016-May-20 08:34N 32°06' W 081°07'6 6.5
2016-May-20 07:33N 32°05' W 080°59'1211.7
2016-May-20 06:34N 31°60' W 080°47'9 8.8
2016-May-20 05:34N 31°57' W 080°37'1211.9
2016-May-20 04:33N 31°57' W 080°23'1211.9
2016-May-20 03:33N 32°00' W 080°10'20912.7
2016-May-19 11:06N 33°48' W 076°36'813.3
2016-May-19 10:29N 33°54' W 076°30'2912.7
2016-May-19 08:14N 34°15' W 076°06'1113.8
2016-May-19 07:25N 34°23' W 075°56'1314.2
2016-May-19 06:30N 34°32' W 075°45'13711.4
2016-May-18 18:33N 36°49' W 075°46'1313.4
2016-May-18 17:34N 36°57' W 075°59'1515.2
2016-May-18 16:33N 37°10' W 076°09'4916.2
2016-May-18 13:31N 37°59' W 076°12'2018.3
2016-May-18 12:27N 38°18' W 076°18'1718.6
2016-May-18 11:34N 38°33' W 076°26'1817.5
2016-May-18 10:33N 38°51' W 076°24'1616.3
2016-May-18 09:33N 39°07' W 076°24'1110.8
2016-May-18 08:33N 39°15' W 076°34'1 0.7
2016-May-18 07:32N 39°15' W 076°33'0 0.0
2016-May-18 06:31N 39°15' W 076°33'0 0.0
2016-May-18 05:34N 39°15' W 076°33'0 0.0
2016-May-18 04:33N 39°15' W 076°33'0 0.0
2016-May-18 03:29N 39°15' W 076°33'0 0.0
2016-May-18 02:32N 39°15' W 076°33'0 0.0
2016-May-18 01:29N 39°15' W 076°33'0 0.0
2016-May-18 00:31N 39°15' W 076°33'0 0.0
2016-May-17 23:31N 39°15' W 076°33'0 0.0
2016-May-17 22:33N 39°15' W 076°33'0 0.0
2016-May-17 21:33N 39°15' W 076°33'0 0.0
2016-May-17 20:32N 39°15' W 076°33'0 0.0
2016-May-17 19:32N 39°15' W 076°33'0 0.0
2016-May-17 18:32N 39°15' W 076°33'0 0.0
2016-May-17 17:28N 39°15' W 076°33'0 0.0
2016-May-17 16:31N 39°15' W 076°33'0 0.0
2016-May-17 15:33N 39°15' W 076°33'0 0.0
2016-May-17 14:33N 39°15' W 076°33'0 0.0
2016-May-17 13:32N 39°15' W 076°33'0 0.0
2016-May-17 12:29N 39°15' W 076°33'0 0.0
2016-May-17 11:32N 39°15' W 076°33'0 0.0
2016-May-17 10:28N 39°15' W 076°33'0 0.0
2016-May-17 09:33N 39°15' W 076°33'4 4.1
2016-May-17 08:33N 39°12' W 076°30'1010.5
2016-May-17 07:33N 39°03' W 076°23'1514.6
2016-May-17 06:33N 38°48' W 076°25'1616.4
2016-May-17 05:33N 38°32' W 076°25'1817.6
2016-May-17 04:32N 38°15' W 076°16'3817.6
2016-May-17 02:23N 37°38' W 076°07'1516.8
2016-May-17 01:30N 37°23' W 076°05'1917.5
2016-May-17 00:25N 37°05' W 076°06'1214.1
2016-May-16 23:33N 36°56' W 075°56'19014.3
2016-May-16 10:15N 39°39' W 073°52'1318.3
2016-May-16 09:34N 39°52' W 073°51'4514.9
2016-May-16 06:31N 40°36' W 074°03'6 5.8
2016-May-16 05:33N 40°39' W 074°09'1 0.1
2016-May-15 10:07N 40°41' W 074°08'2 2.0
2016-May-15 09:08N 40°39' W 074°08'3 5.6
2016-May-15 08:33N 40°39' W 074°03'1010.2
2016-May-15 07:33N 40°30' W 073°56'3811.7
2016-May-15 04:16N 39°53' W 073°41'20614.7
2016-May-14 14:19N 36°49' W 075°39'1215.2
2016-May-14 13:33N 36°52' W 075°53'1414.6
2016-May-14 12:33N 36°59' W 076°09'1010.3
2016-May-14 11:33N 36°55' W 076°20'2 2.2
2016-May-14 10:32N 36°53' W 076°21'0 0.0
2016-May-14 09:32N 36°53' W 076°21'0 0.0
2016-May-14 08:31N 36°53' W 076°21'0 0.0
2016-May-14 07:31N 36°53' W 076°21'0 0.0
2016-May-13 18:28N 36°53' W 076°21'0 0.0
2016-May-13 15:33N 36°53' W 076°21'3 3.4
2016-May-13 14:33N 36°56' W 076°20'1110.7
2016-May-13 13:34N 36°59' W 076°07'1211.6
2016-May-13 12:33N 36°54' W 075°54'  
Track history (hours):
 
Tides and Currents Weather Stations Pressure Air Temp Water Temp Dewpoint Dewpoint Depression Visibility Wind Speed Wind Dir Waves Ship Positions

MSC Luisa

Last reported at 2016-May-23 11:26 UTC. Time now 2016-May-27 18:11 UTC.
Position N 26°32' W 078°46'.

Length 289 m; draft 10.5 m.

Type: Ship. MMSI: 355308000.

Date/timePositionNaut miles runAvg speedWind from/ knotsBaromVisibWave heightAir tempDewpointWater temp
2016-May-23 11:26N 26°32' W 078°46'0 0.0
2016-May-23 10:19N 26°32' W 078°46'0 0.0
2016-May-23 09:25N 26°32' W 078°46'0 0.0
2016-May-23 07:33N 26°32' W 078°46'55 3.3
2016-May-22 15:03N 27°20' W 079°16'917.0
2016-May-22 14:31N 27°29' W 079°15'247 7.6
2016-May-21 06:05N 31°33' W 080°04'5 8.7
2016-May-21 05:33N 31°37' W 080°06'9 9.0
2016-May-21 04:33N 31°46' W 080°09'9 8.7
2016-May-21 03:32N 31°51' W 080°17'9 9.5
2016-May-21 02:33N 31°54' W 080°28'9 9.2
2016-May-21 01:33N 31°56' W 080°38'1111.3
2016-May-21 00:33N 32°02' W 080°49'1010.0
2016-May-20 23:34N 32°06' W 081°00'6 5.7
2016-May-20 22:33N 32°06' W 081°07'1 1.5
2016-May-20 21:34N 32°07' W 081°08'0 0.0
2016-May-20 20:33N 32°07' W 081°08'0 0.0
2016-May-20 19:33N 32°07' W 081°08'0 0.0
2016-May-20 18:32N 32°07' W 081°08'0 0.0
2016-May-20 17:32N 32°07' W 081°08'0 0.0
2016-May-20 16:31N 32°07' W 081°08'0 0.0
2016-May-20 15:31N 32°07' W 081°08'0 0.0
2016-May-20 14:33N 32°07' W 081°08'0 0.0
2016-May-20 13:33N 32°07' W 081°08'0 0.0
2016-May-20 12:33N 32°07' W 081°08'0 0.0
2016-May-20 11:32N 32°07' W 081°08'0 0.0
2016-May-20 10:32N 32°07' W 081°08'0 0.0
2016-May-20 09:33N 32°07' W 081°08'2 1.6
2016-May-20 08:34N 32°06' W 081°07'6 6.5
2016-May-20 07:33N 32°05' W 080°59'1211.7
2016-May-20 06:34N 31°60' W 080°47'9 8.8
2016-May-20 05:34N 31°57' W 080°37'1211.9
2016-May-20 04:33N 31°57' W 080°23'1211.9
2016-May-20 03:33N 32°00' W 080°10'20912.7
2016-May-19 11:06N 33°48' W 076°36'813.3
2016-May-19 10:29N 33°54' W 076°30'2912.7
2016-May-19 08:14N 34°15' W 076°06'1113.8
2016-May-19 07:25N 34°23' W 075°56'1314.2
2016-May-19 06:30N 34°32' W 075°45'13711.4
2016-May-18 18:33N 36°49' W 075°46'1313.4
2016-May-18 17:34N 36°57' W 075°59'1515.2
2016-May-18 16:33N 37°10' W 076°09'4916.2
2016-May-18 13:31N 37°59' W 076°12'2018.3
2016-May-18 12:27N 38°18' W 076°18'1718.6
2016-May-18 11:34N 38°33' W 076°26'1817.5
2016-May-18 10:33N 38°51' W 076°24'1616.3
2016-May-18 09:33N 39°07' W 076°24'1110.8
2016-May-18 08:33N 39°15' W 076°34'1 0.7
2016-May-18 07:32N 39°15' W 076°33'0 0.0
2016-May-18 06:31N 39°15' W 076°33'0 0.0
2016-May-18 05:34N 39°15' W 076°33'0 0.0
2016-May-18 04:33N 39°15' W 076°33'0 0.0
2016-May-18 03:29N 39°15' W 076°33'0 0.0
2016-May-18 02:32N 39°15' W 076°33'0 0.0
2016-May-18 01:29N 39°15' W 076°33'0 0.0
2016-May-18 00:31N 39°15' W 076°33'0 0.0
2016-May-17 23:31N 39°15' W 076°33'0 0.0
2016-May-17 22:33N 39°15' W 076°33'0 0.0
2016-May-17 21:33N 39°15' W 076°33'0 0.0
2016-May-17 20:32N 39°15' W 076°33'0 0.0
2016-May-17 19:32N 39°15' W 076°33'0 0.0
2016-May-17 18:32N 39°15' W 076°33'0 0.0
2016-May-17 17:28N 39°15' W 076°33'0 0.0
2016-May-17 16:31N 39°15' W 076°33'0 0.0
2016-May-17 15:33N 39°15' W 076°33'0 0.0
2016-May-17 14:33N 39°15' W 076°33'0 0.0
2016-May-17 13:32N 39°15' W 076°33'0 0.0
2016-May-17 12:29N 39°15' W 076°33'0 0.0
2016-May-17 11:32N 39°15' W 076°33'0 0.0
2016-May-17 10:28N 39°15' W 076°33'0 0.0
2016-May-17 09:33N 39°15' W 076°33'4 4.1
2016-May-17 08:33N 39°12' W 076°30'1010.5
2016-May-17 07:33N 39°03' W 076°23'1514.6
2016-May-17 06:33N 38°48' W 076°25'1616.4
2016-May-17 05:33N 38°32' W 076°25'1817.6
2016-May-17 04:32N 38°15' W 076°16'3817.6
2016-May-17 02:23N 37°38' W 076°07'1516.8
2016-May-17 01:30N 37°23' W 076°05'1917.5
2016-May-17 00:25N 37°05' W 076°06'1214.1
2016-May-16 23:33N 36°56' W 075°56'19014.3
2016-May-16 10:15N 39°39' W 073°52'1318.3
2016-May-16 09:34N 39°52' W 073°51'4514.9
2016-May-16 06:31N 40°36' W 074°03'6 5.8
2016-May-16 05:33N 40°39' W 074°09'1 0.1
2016-May-15 10:07N 40°41' W 074°08'2 2.0
2016-May-15 09:08N 40°39' W 074°08'3 5.6
2016-May-15 08:33N 40°39' W 074°03'1010.2
2016-May-15 07:33N 40°30' W 073°56'3811.7
2016-May-15 04:16N 39°53' W 073°41'20614.7
2016-May-14 14:19N 36°49' W 075°39'1215.2
2016-May-14 13:33N 36°52' W 075°53'1414.6
2016-May-14 12:33N 36°59' W 076°09'1010.3
2016-May-14 11:33N 36°55' W 076°20'2 2.2
2016-May-14 10:32N 36°53' W 076°21'0 0.0
2016-May-14 09:32N 36°53' W 076°21'0 0.0
2016-May-14 08:31N 36°53' W 076°21'0 0.0
2016-May-14 07:31N 36°53' W 076°21'0 0.0
2016-May-13 18:28N 36°53' W 076°21'0 0.0
2016-May-13 15:33N 36°53' W 076°21'3 3.4
2016-May-13 14:33N 36°56' W 076°20'1110.7
2016-May-13 13:34N 36°59' W 076°07'1211.6
2016-May-13 12:33N 36°54' W 075°54'  

Dump ship's entire track history